Time;durP1;ratioP1;P1;durP2;ratioP2;P2;SDS_P1;SDS_P2;PMS_P1;PMS_P2;Temp;Humidity;BMP_temperature;BMP_pressure;BME280_temperature;BME280_humidity;BME280_pressure;Samples;Min_cycle;Max_cycle;Signal;HPM_P1;HPM_P2
2021/11/19 00:00:34;;;;;;;28.92;12.75;;;;;;;;;;5099026;28;20418;-70
2021/11/19 00:03:00;;;;;;;28.35;11.65;;;;;;;;;;5100141;28;20075;-70
2021/11/19 00:05:27;;;;;;;19.63;12.20;;;;;;;;;;5099572;28;20035;-70
2021/11/19 00:07:53;;;;;;;24.88;11.98;;;;;;;;;;5098923;28;20027;-70
2021/11/19 00:10:19;;;;;;;25.00;14.45;;;;;;;;;;5099878;28;20397;-70
2021/11/19 00:12:45;;;;;;;27.63;11.15;;;;;;;;;;5100054;28;20035;-70
2021/11/19 00:15:11;;;;;;;23.35;12.05;;;;;;;;;;5100007;28;20035;-70
2021/11/19 00:17:37;;;;;;;20.95;11.02;;;;;;;;;;5099886;28;20020;-70
2021/11/19 00:20:08;;;;;;;18.45;10.02;;;;;;;;;;5098648;28;20016;-70
2021/11/19 00:22:35;;;;;;;21.17;10.93;;;;;;;;;;5099928;28;20020;-70
2021/11/19 00:25:00;;;;;;;28.52;12.88;;;;;;;;;;5099708;28;20031;-70
2021/11/19 00:27:26;;;;;;;26.55;12.43;;;;;;;;;;5099765;28;20119;-70
2021/11/19 00:29:53;;;;;;;20.77;11.55;;;;;;;;;;5099710;28;20029;-70
2021/11/19 00:32:19;;;;;;;23.88;9.60;;;;;;;;;;5099314;28;20020;-70
2021/11/19 00:34:45;;;;;;;19.35;10.48;;;;;;;;;;5099078;28;20020;-70
2021/11/19 00:37:12;;;;;;;21.70;11.23;;;;;;;;;;5099392;28;20031;-70
2021/11/19 00:39:38;;;;;;;26.23;10.18;;;;;;;;;;5099372;28;20019;-70
2021/11/19 00:42:05;;;;;;;20.58;10.63;;;;;;;;;;5099577;28;20042;-70
2021/11/19 00:44:31;;;;;;;21.15;10.82;;;;;;;;;;5098840;28;20032;-70
2021/11/19 00:46:57;;;;;;;17.73;9.07;;;;;;;;;;5099274;28;20026;-70
2021/11/19 00:49:26;;;;;;;16.23;9.15;;;;;;;;;;5098954;28;20425;-70
2021/11/19 00:51:54;;;;;;;17.15;8.52;;;;;;;;;;5099218;28;20031;-70
2021/11/19 00:54:21;;;;;;;24.00;9.93;;;;;;;;;;5098899;28;20023;-70
2021/11/19 00:56:48;;;;;;;17.13;9.95;;;;;;;;;;5098588;28;20042;-70
2021/11/19 00:59:15;;;;;;;20.92;12.77;;;;;;;;;;5099103;28;20027;-70
2021/11/19 01:01:43;;;;;;;23.23;10.63;;;;;;;;;;5098962;28;20095;-70
2021/11/19 01:04:10;;;;;;;16.77;9.23;;;;;;;;;;5098948;28;20510;-70
2021/11/19 01:06:36;;;;;;;22.05;11.10;;;;;;;;;;5098769;28;20032;-70
2021/11/19 01:09:04;;;;;;;21.90;10.85;;;;;;;;;;5098627;28;20102;-70
2021/11/19 01:11:30;;;;;;;19.83;9.60;;;;;;;;;;5097980;28;20020;-70
2021/11/19 01:13:57;;;;;;;22.73;9.77;;;;;;;;;;5098272;28;20034;-70
2021/11/19 01:16:27;;;;;;;23.52;11.13;;;;;;;;;;5098413;28;20103;-70
2021/11/19 01:18:55;;;;;;;22.35;9.52;;;;;;;;;;5098208;28;20344;-69
2021/11/19 01:21:33;;;;;;;24.70;11.48;;;;;;;;;;5098219;28;20044;-70
2021/11/19 01:24:00;;;;;;;27.50;9.90;;;;;;;;;;5097002;28;20038;-71
2021/11/19 01:26:27;;;;;;;25.42;11.25;;;;;;;;;;5097546;28;20065;-70
2021/11/19 01:28:55;;;;;;;24.95;10.90;;;;;;;;;;5096640;28;20024;-70
2021/11/19 01:31:23;;;;;;;23.70;11.13;;;;;;;;;;5096949;28;20020;-70
2021/11/19 01:33:49;;;;;;;21.10;10.60;;;;;;;;;;5097467;28;20422;-70
2021/11/19 01:36:16;;;;;;;19.60;8.07;;;;;;;;;;5096382;28;20090;-70
2021/11/19 01:38:43;;;;;;;18.83;11.13;;;;;;;;;;5096643;28;20046;-70
2021/11/19 01:41:15;;;;;;;17.60;10.35;;;;;;;;;;5094334;28;20341;-70
2021/11/19 01:43:42;;;;;;;22.58;12.50;;;;;;;;;;5095626;28;20055;-70
2021/11/19 01:46:10;;;;;;;23.55;11.57;;;;;;;;;;5095318;28;20019;-69
2021/11/19 01:48:41;;;;;;;26.20;13.27;;;;;;;;;;5097029;28;20016;-71
2021/11/19 01:51:06;;;;;;;;;;;;;;;;;;5096987;28;20426;-71
2021/11/19 01:53:32;;;;;;;35.08;16.27;;;;;;;;;;5096561;28;19911;-70
2021/11/19 01:55:58;;;;;;;38.47;16.48;;;;;;;;;;5096596;28;20024;-70
2021/11/19 01:58:30;;;;;;;25.70;12.38;;;;;;;;;;5097310;28;20031;-69
2021/11/19 02:01:08;;;;;;;33.45;14.82;;;;;;;;;;5095421;28;20069;-69
2021/11/19 02:03:41;;;;;;;24.35;11.18;;;;;;;;;;5094716;28;20479;-70
2021/11/19 02:06:21;;;;;;;22.83;11.35;;;;;;;;;;5094389;28;20557;-70
2021/11/19 02:08:48;;;;;;;27.17;12.02;;;;;;;;;;5096378;28;20097;-70
2021/11/19 02:11:14;;;;;;;26.58;11.73;;;;;;;;;;5095600;28;20058;-70
2021/11/19 02:14:03;;;;;;;19.42;10.15;;;;;;;;;;5095846;28;20047;-69
2021/11/19 02:16:32;;;;;;;25.40;11.23;;;;;;;;;;5095689;28;20069;-71
2021/11/19 02:19:02;;;;;;;22.10;9.40;;;;;;;;;;5096876;28;20023;-70
2021/11/19 02:21:34;;;;;;;22.75;11.13;;;;;;;;;;5095201;28;20012;-70
2021/11/19 02:24:06;;;;;;;19.33;11.20;;;;;;;;;;5095560;28;20433;-70
2021/11/19 02:26:37;;;;;;;18.75;9.02;;;;;;;;;;5097152;28;20043;-70
2021/11/19 02:29:04;;;;;;;27.15;14.40;;;;;;;;;;5096400;28;20022;-70
2021/11/19 02:31:36;;;;;;;26.35;12.45;;;;;;;;;;5095497;28;20080;-70
2021/11/19 02:34:04;;;;;;;22.33;13.07;;;;;;;;;;5095142;28;20016;-70
2021/11/19 02:36:33;;;;;;;26.40;14.07;;;;;;;;;;5094964;28;20332;-70
2021/11/19 02:39:25;;;;;;;27.83;12.50;;;;;;;;;;5096413;28;20026;-70
2021/11/19 02:41:54;;;;;;;25.48;14.38;;;;;;;;;;5093446;28;20119;-70
2021/11/19 02:44:22;;;;;;;29.60;14.73;;;;;;;;;;5094798;28;20131;-70
2021/11/19 02:46:50;;;;;;;27.73;12.95;;;;;;;;;;5095003;28;20020;-70
2021/11/19 02:49:16;;;;;;;33.72;15.98;;;;;;;;;;5093742;28;20058;-70
2021/11/19 02:51:45;;;;;;;47.10;20.55;;;;;;;;;;5076847;28;20051;-70
2021/11/19 02:54:12;;;;;;;46.88;21.67;;;;;;;;;;5094151;28;20020;-70
2021/11/19 02:56:39;;;;;;;47.80;19.98;;;;;;;;;;5093267;28;20107;-69
2021/11/19 02:59:06;;;;;;;49.95;20.35;;;;;;;;;;5091300;28;20024;-69
2021/11/19 03:01:35;;;;;;;27.20;12.55;;;;;;;;;;5091587;28;20016;-69
2021/11/19 03:04:21;;;;;;;33.38;14.10;;;;;;;;;;5091329;28;20349;-68
2021/11/19 03:06:49;;;;;;;35.28;15.43;;;;;;;;;;5090826;28;20040;-70
2021/11/19 03:09:19;;;;;;;30.95;14.02;;;;;;;;;;5094281;28;20032;-69
2021/11/19 03:11:54;;;;;;;21.30;11.02;;;;;;;;;;5092525;28;20015;-71
2021/11/19 03:14:34;;;;;;;25.10;10.77;;;;;;;;;;5091718;28;20042;-70
2021/11/19 03:17:05;;;;;;;30.13;10.77;;;;;;;;;;5076177;28;20046;-71
2021/11/19 03:20:17;;;;;;;17.77;9.70;;;;;;;;;;5093071;28;20115;-71
2021/11/19 03:22:56;;;;;;;16.33;8.50;;;;;;;;;;5091437;28;20032;-71
2021/11/19 03:25:54;;;;;;;15.45;8.73;;;;;;;;;;5050901;28;20198;-71
2021/11/19 03:28:33;;;;;;;25.77;10.98;;;;;;;;;;5055770;28;20083;-72
2021/11/19 03:31:04;;;;;;;18.02;9.02;;;;;;;;;;5074552;28;20039;-70
2021/11/19 03:33:31;;;;;;;16.67;8.07;;;;;;;;;;5092905;28;20074;-70
2021/11/19 03:35:58;;;;;;;18.65;10.60;;;;;;;;;;5078199;28;20070;-70
2021/11/19 03:38:25;;;;;;;20.70;9.82;;;;;;;;;;5095304;28;20020;-70
2021/11/19 03:40:52;;;;;;;45.78;20.00;;;;;;;;;;5095588;28;20032;-70
2021/11/19 03:43:26;;;;;;;49.60;22.48;;;;;;;;;;5095550;28;20017;-70
2021/11/19 03:45:55;;;;;;;38.97;19.30;;;;;;;;;;5094775;28;20047;-70
2021/11/19 03:48:22;;;;;;;42.05;17.90;;;;;;;;;;5095251;28;20026;-71
2021/11/19 03:50:52;;;;;;;33.20;16.27;;;;;;;;;;5095226;28;20150;-71
2021/11/19 03:53:19;;;;;;;38.60;15.60;;;;;;;;;;5095724;28;20027;-70
2021/11/19 03:55:49;;;;;;;26.23;13.57;;;;;;;;;;5096136;28;20456;-71
2021/11/19 03:58:22;;;;;;;32.77;15.30;;;;;;;;;;5094380;28;20059;-71
2021/11/19 04:00:50;;;;;;;33.25;13.30;;;;;;;;;;5096833;28;20337;-71
2021/11/19 04:03:19;;;;;;;24.23;10.88;;;;;;;;;;5097242;28;20020;-70
2021/11/19 04:05:46;;;;;;;25.83;12.32;;;;;;;;;;5096069;28;20031;-71
2021/11/19 04:08:13;;;;;;;24.42;14.52;;;;;;;;;;5097921;28;20429;-70
2021/11/19 04:10:39;;;;;;;32.13;14.65;;;;;;;;;;5097402;28;20027;-70
2021/11/19 04:13:06;;;;;;;32.85;11.88;;;;;;;;;;5097169;28;20016;-71
2021/11/19 04:15:37;;;;;;;20.92;11.88;;;;;;;;;;5096641;28;20214;-69
2021/11/19 04:18:04;;;;;;;26.88;13.32;;;;;;;;;;5095630;28;20026;-71
2021/11/19 04:20:30;;;;;;;27.67;16.15;;;;;;;;;;5095868;28;20054;-72
2021/11/19 04:22:56;;;;;;;33.25;13.60;;;;;;;;;;5094228;28;20012;-71
2021/11/19 04:25:24;;;;;;;27.23;12.98;;;;;;;;;;5095490;28;20035;-69
2021/11/19 04:27:50;;;;;;;34.40;14.13;;;;;;;;;;5077533;28;20024;-71
2021/11/19 04:30:20;;;;;;;16.75;9.43;;;;;;;;;;5094183;28;20015;-71
2021/11/19 04:32:46;;;;;;;19.25;10.68;;;;;;;;;;5093958;28;20024;-71
2021/11/19 04:35:13;;;;;;;19.33;8.63;;;;;;;;;;5095670;28;20024;-70
2021/11/19 04:37:39;;;;;;;24.48;9.23;;;;;;;;;;5095904;28;20020;-72
2021/11/19 04:40:07;;;;;;;24.17;10.00;;;;;;;;;;5095343;28;20016;-70
2021/11/19 04:42:33;;;;;;;22.90;10.93;;;;;;;;;;5096150;28;20106;-69
2021/11/19 04:44:59;;;;;;;27.23;12.65;;;;;;;;;;5095665;28;20031;-70
2021/11/19 04:47:26;;;;;;;19.05;11.05;;;;;;;;;;5094466;28;20008;-70
2021/11/19 04:49:52;;;;;;;21.88;10.98;;;;;;;;;;5097593;28;20024;-70
2021/11/19 04:52:18;;;;;;;33.35;11.98;;;;;;;;;;5097307;28;20316;-69
2021/11/19 04:54:44;;;;;;;22.13;10.85;;;;;;;;;;5096323;28;20089;-69
2021/11/19 04:57:11;;;;;;;28.60;10.88;;;;;;;;;;5096304;28;20023;-71
2021/11/19 04:59:37;;;;;;;22.90;10.15;;;;;;;;;;5094874;28;20386;-71
2021/11/19 05:02:07;;;;;;;25.80;12.65;;;;;;;;;;5096790;28;20026;-70
2021/11/19 05:04:34;;;;;;;27.25;11.10;;;;;;;;;;5096867;28;20425;-70
2021/11/19 05:07:00;;;;;;;18.27;9.68;;;;;;;;;;5096827;28;20035;-70
2021/11/19 05:09:29;;;;;;;14.30;8.70;;;;;;;;;;5097066;28;20024;-70
2021/11/19 05:12:16;;;;;;;15.20;8.02;;;;;;;;;;5095757;28;20290;-70
2021/11/19 05:14:49;;;;;;;24.23;10.45;;;;;;;;;;5096676;28;20039;-71
2021/11/19 05:17:15;;;;;;;18.60;8.43;;;;;;;;;;5096847;28;20017;-71
2021/11/19 05:19:41;;;;;;;22.67;8.63;;;;;;;;;;5095711;28;20111;-70
2021/11/19 05:22:08;;;;;;;17.52;8.63;;;;;;;;;;5095091;28;20055;-70
2021/11/19 05:24:35;;;;;;;18.80;8.00;;;;;;;;;;5096170;28;20091;-70
2021/11/19 05:27:02;;;;;;;20.08;8.00;;;;;;;;;;5094603;28;20112;-71
2021/11/19 05:29:28;;;;;;;21.75;10.85;;;;;;;;;;5096145;28;20406;-70
2021/11/19 05:31:54;;;;;;;21.25;9.93;;;;;;;;;;5096647;28;20484;-70
2021/11/19 05:34:24;;;;;;;20.33;10.07;;;;;;;;;;5094983;28;20166;-71
2021/11/19 05:36:50;;;;;;;19.00;10.52;;;;;;;;;;5095339;28;20322;-70
2021/11/19 05:39:17;;;;;;;26.40;10.13;;;;;;;;;;5096077;28;20211;-69
2021/11/19 05:41:46;;;;;;;21.98;11.20;;;;;;;;;;5096614;28;20070;-71
2021/11/19 05:44:16;;;;;;;25.52;9.73;;;;;;;;;;5095164;28;20036;-70
2021/11/19 05:46:42;;;;;;;21.63;9.73;;;;;;;;;;5097175;28;20026;-71
2021/11/19 05:49:11;;;;;;;27.55;13.05;;;;;;;;;;5094772;28;20506;-69
2021/11/19 05:51:38;;;;;;;32.08;13.23;;;;;;;;;;5077994;28;20119;-70
2021/11/19 05:54:05;;;;;;;31.13;13.02;;;;;;;;;;5094381;28;20019;-70
2021/11/19 05:56:31;;;;;;;26.10;10.00;;;;;;;;;;5094420;28;20039;-72
2021/11/19 05:58:57;;;;;;;36.58;13.60;;;;;;;;;;5095023;28;20031;-72
2021/11/19 06:01:24;;;;;;;25.63;10.60;;;;;;;;;;5093234;28;20043;-69
2021/11/19 06:03:50;;;;;;;25.73;13.48;;;;;;;;;;5092471;28;20064;-71
2021/11/19 06:06:16;;;;;;;29.23;13.18;;;;;;;;;;5092837;28;20131;-69
2021/11/19 06:08:43;;;;;;;26.00;10.68;;;;;;;;;;5094397;28;20034;-70
2021/11/19 06:11:18;;;;;;;24.23;12.27;;;;;;;;;;5094223;28;20075;-73
2021/11/19 06:13:53;;;;;;;28.23;11.50;;;;;;;;;;5076083;28;20020;-72
2021/11/19 06:16:20;;;;;;;23.42;10.82;;;;;;;;;;5093266;28;20018;-71
2021/11/19 06:18:49;;;;;;;20.17;8.55;;;;;;;;;;5095657;28;20026;-71
2021/11/19 06:21:24;;;;;;;21.52;8.98;;;;;;;;;;5077464;28;20081;-70
2021/11/19 06:23:52;;;;;;;24.48;10.55;;;;;;;;;;5095779;22;20044;-70
2021/11/19 06:26:23;;;;;;;20.17;10.68;;;;;;;;;;5095230;28;20052;-71
2021/11/19 06:28:52;;;;;;;24.83;9.95;;;;;;;;;;5094583;28;20034;-70
2021/11/19 06:31:22;;;;;;;23.63;11.15;;;;;;;;;;5095767;28;20423;-71
2021/11/19 06:33:53;;;;;;;21.52;9.38;;;;;;;;;;5078744;28;20042;-71
2021/11/19 06:36:19;;;;;;;17.45;8.88;;;;;;;;;;5095589;28;20016;-71
2021/11/19 06:38:46;;;;;;;23.55;10.02;;;;;;;;;;5094668;28;20101;-70
2021/11/19 06:41:12;;;;;;;20.83;8.40;;;;;;;;;;5076533;28;20030;-70
2021/11/19 06:43:39;;;;;;;27.80;9.73;;;;;;;;;;5095409;28;20031;-71
2021/11/19 06:46:05;;;;;;;19.45;9.13;;;;;;;;;;5095511;28;20048;-72
2021/11/19 06:48:31;;;;;;;23.45;9.27;;;;;;;;;;5077534;28;20021;-71
2021/11/19 06:50:57;;;;;;;24.10;11.20;;;;;;;;;;5095242;28;20376;-70
2021/11/19 06:53:26;;;;;;;21.15;9.05;;;;;;;;;;5095212;28;20016;-70
2021/11/19 06:55:52;;;;;;;22.83;9.00;;;;;;;;;;5094195;28;20020;-72
2021/11/19 06:58:18;;;;;;;23.75;10.15;;;;;;;;;;5060515;28;20433;-70
2021/11/19 07:00:45;;;;;;;27.33;11.45;;;;;;;;;;5094396;28;20016;-70
2021/11/19 07:03:12;;;;;;;25.65;10.93;;;;;;;;;;5059900;28;20027;-70
2021/11/19 07:05:38;;;;;;;26.23;9.70;;;;;;;;;;5064763;22;20615;-74
2021/11/19 07:08:06;;;;;;;28.95;11.10;;;;;;;;;;5094779;28;20107;-72
2021/11/19 07:10:33;;;;;;;26.52;10.00;;;;;;;;;;5098658;28;20096;-71
2021/11/19 07:12:59;;;;;;;21.40;9.57;;;;;;;;;;5099765;28;20326;-71
2021/11/19 07:15:25;;;;;;;30.10;12.52;;;;;;;;;;5099491;28;20027;-71
2021/11/19 07:17:52;;;;;;;23.80;10.90;;;;;;;;;;5098845;28;20081;-71
2021/11/19 07:20:20;;;;;;;26.23;11.25;;;;;;;;;;5098783;28;20043;-71
2021/11/19 07:22:46;;;;;;;25.52;11.05;;;;;;;;;;5099244;28;20016;-71
2021/11/19 07:25:14;;;;;;;27.90;11.50;;;;;;;;;;5099108;28;20455;-73
2021/11/19 07:27:41;;;;;;;25.77;12.13;;;;;;;;;;5099475;28;20023;-71
2021/11/19 07:30:09;;;;;;;31.83;12.52;;;;;;;;;;5079464;28;20027;-71
2021/11/19 07:32:36;;;;;;;39.40;13.30;;;;;;;;;;5096291;28;20047;-71
2021/11/19 07:35:03;;;;;;;26.92;12.00;;;;;;;;;;5079674;28;20026;-71
2021/11/19 07:37:29;;;;;;;31.52;11.25;;;;;;;;;;5082458;28;20020;-73
2021/11/19 07:39:55;;;;;;;33.03;13.68;;;;;;;;;;5080193;28;20573;-71
2021/11/19 07:42:21;;;;;;;27.13;11.23;;;;;;;;;;5097152;28;20020;-70
2021/11/19 07:44:48;;;;;;;25.65;11.18;;;;;;;;;;5096319;28;20082;-70
2021/11/19 07:47:14;;;;;;;32.88;13.07;;;;;;;;;;5097240;28;20016;-71
2021/11/19 07:49:40;;;;;;;27.33;12.98;;;;;;;;;;5097336;28;20016;-70
2021/11/19 07:52:06;;;;;;;37.15;13.70;;;;;;;;;;5097461;28;20031;-71
2021/11/19 07:54:32;;;;;;;32.75;11.75;;;;;;;;;;5097001;28;20016;-71
2021/11/19 07:56:58;;;;;;;38.35;13.75;;;;;;;;;;5097578;28;20046;-71
2021/11/19 07:59:25;;;;;;;33.78;13.63;;;;;;;;;;5097535;28;20023;-70
2021/11/19 08:01:53;;;;;;;37.72;15.25;;;;;;;;;;5097463;28;20016;-71
2021/11/19 08:04:22;;;;;;;47.83;15.00;;;;;;;;;;5079994;28;20028;-71
2021/11/19 08:06:51;;;;;;;47.25;17.70;;;;;;;;;;5099330;28;20540;-71
2021/11/19 08:09:17;;;;;;;37.00;14.57;;;;;;;;;;5099542;28;20023;-71
2021/11/19 08:11:44;;;;;;;35.38;14.50;;;;;;;;;;5099227;28;20027;-71
2021/11/19 08:14:10;;;;;;;35.03;14.88;;;;;;;;;;5099588;28;20091;-71
2021/11/19 08:16:44;;;;;;;27.83;13.27;;;;;;;;;;5098972;28;20050;-71
2021/11/19 08:19:20;;;;;;;32.42;12.60;;;;;;;;;;5099129;28;20026;-70
2021/11/19 08:21:46;;;;;;;36.05;15.05;;;;;;;;;;5079879;28;20326;-71
2021/11/19 08:24:13;;;;;;;31.67;15.00;;;;;;;;;;5080822;28;20047;-70
2021/11/19 08:26:41;;;;;;;29.55;13.60;;;;;;;;;;5080602;28;20348;-71
2021/11/19 08:29:10;;;;;;;43.05;16.23;;;;;;;;;;5099264;28;20095;-71
2021/11/19 08:31:36;;;;;;;21.05;12.45;;;;;;;;;;5080992;28;20024;-71
2021/11/19 08:34:03;;;;;;;36.15;15.02;;;;;;;;;;5099825;28;20493;-71
2021/11/19 08:36:30;;;;;;;46.35;17.73;;;;;;;;;;5080956;28;20274;-71
2021/11/19 08:38:56;;;;;;;33.88;15.55;;;;;;;;;;5098247;28;20012;-70
2021/11/19 08:41:22;;;;;;;37.22;15.52;;;;;;;;;;5098915;28;20084;-70
2021/11/19 08:43:49;;;;;;;39.83;14.45;;;;;;;;;;5079570;28;20016;-70
2021/11/19 08:46:21;;;;;;;42.25;15.25;;;;;;;;;;5098638;28;20022;-71
2021/11/19 08:48:49;;;;;;;32.30;14.90;;;;;;;;;;5080018;28;20009;-71
2021/11/19 08:51:19;;;;;;;32.45;14.68;;;;;;;;;;5097621;28;20016;-71
2021/11/19 08:53:47;;;;;;;37.78;14.52;;;;;;;;;;5097923;28;20093;-70
2021/11/19 08:56:13;;;;;;;43.75;16.70;;;;;;;;;;5098566;28;20418;-71
2021/11/19 08:58:41;;;;;;;42.50;17.70;;;;;;;;;;5080038;28;20028;-71
2021/11/19 09:01:09;;;;;;;29.48;13.65;;;;;;;;;;5080341;28;20024;-71
2021/11/19 09:03:36;;;;;;;35.67;15.57;;;;;;;;;;5062937;28;20314;-71
2021/11/19 09:06:04;;;;;;;35.53;13.68;;;;;;;;;;5079804;28;20032;-71
2021/11/19 09:08:30;;;;;;;33.22;14.60;;;;;;;;;;5097496;28;20463;-71
2021/11/19 09:10:57;;;;;;;37.72;14.65;;;;;;;;;;5097689;28;20042;-71
2021/11/19 09:13:24;;;;;;;41.92;16.15;;;;;;;;;;5098224;28;20039;-71
2021/11/19 09:15:51;;;;;;;40.42;17.85;;;;;;;;;;5080537;28;20028;-71
2021/11/19 09:18:40;;;;;;;41.53;19.55;;;;;;;;;;5097829;28;20169;-71
2021/11/19 09:21:06;;;;;;;36.83;19.55;;;;;;;;;;5087745;28;20035;-71
2021/11/19 09:23:43;;;;;;;39.08;17.83;;;;;;;;;;5097936;28;20103;-71
2021/11/19 09:26:11;;;;;;;40.65;19.15;;;;;;;;;;5080309;28;20051;-71
2021/11/19 09:28:39;;;;;;;49.20;20.45;;;;;;;;;;5080131;28;20020;-70
2021/11/19 09:31:06;;;;;;;45.33;19.55;;;;;;;;;;5097938;28;20024;-70
2021/11/19 09:33:32;;;;;;;39.08;17.80;;;;;;;;;;5097737;28;20158;-71
2021/11/19 09:35:58;;;;;;;45.65;18.95;;;;;;;;;;5098145;28;20047;-71
2021/11/19 09:38:25;;;;;;;48.13;18.88;;;;;;;;;;5098045;28;20422;-70
2021/11/19 09:40:57;;;;;;;41.85;17.65;;;;;;;;;;5097416;28;20123;-70
2021/11/19 09:43:43;;;;;;;58.53;23.88;;;;;;;;;;5097414;28;20020;-71
2021/11/19 09:46:15;;;;;;;41.97;15.07;;;;;;;;;;5079912;28;20036;-70
2021/11/19 09:48:59;;;;;;;58.25;20.75;;;;;;;;;;5097878;28;20020;-71
2021/11/19 09:51:37;;;;;;;43.08;17.48;;;;;;;;;;5097766;28;20051;-70
2021/11/19 09:54:26;;;;;;;45.47;22.27;;;;;;;;;;5097873;28;20100;-71
2021/11/19 09:56:52;;;;;;;55.78;19.92;;;;;;;;;;5097815;28;20409;-71
2021/11/19 09:59:37;;;;;;;39.70;15.77;;;;;;;;;;5079702;28;20115;-70
2021/11/19 10:02:11;;;;;;;45.05;17.65;;;;;;;;;;5097258;28;20027;-72
2021/11/19 10:04:56;;;;;;;46.13;19.85;;;;;;;;;;5079497;28;20036;-71
2021/11/19 10:07:35;;;;;;;52.08;17.38;;;;;;;;;;5098087;28;20109;-71
2021/11/19 10:10:12;;;;;;;34.30;16.98;;;;;;;;;;5097602;28;20066;-71
2021/11/19 10:12:42;;;;;;;48.95;16.10;;;;;;;;;;5062814;28;20023;-71
2021/11/19 10:15:10;;;;;;;22.27;11.32;;;;;;;;;;5097583;28;20016;-70
2021/11/19 10:17:42;;;;;;;27.52;11.95;;;;;;;;;;5097010;28;20016;-70
2021/11/19 10:20:08;;;;;;;32.75;12.30;;;;;;;;;;5097073;28;20027;-70
2021/11/19 10:22:36;;;;;;;33.33;13.38;;;;;;;;;;5079285;28;20321;-71
2021/11/19 10:25:07;;;;;;;38.05;15.30;;;;;;;;;;5096731;28;20035;-70
2021/11/19 10:27:38;;;;;;;28.25;10.80;;;;;;;;;;5096740;28;20050;-71
2021/11/19 10:30:04;;;;;;;24.27;12.20;;;;;;;;;;5097597;28;20027;-71
2021/11/19 10:32:31;;;;;;;30.80;14.05;;;;;;;;;;5097342;28;20031;-71
2021/11/19 10:35:06;;;;;;;36.30;15.30;;;;;;;;;;5097250;28;20019;-71
2021/11/19 10:37:44;;;;;;;33.38;13.23;;;;;;;;;;5097039;28;20020;-71
2021/11/19 10:40:10;;;;;;;37.42;15.63;;;;;;;;;;5096607;28;20052;-71
2021/11/19 10:42:55;;;;;;;37.10;13.10;;;;;;;;;;5096574;28;20047;-71
2021/11/19 10:45:43;;;;;;;38.33;16.50;;;;;;;;;;5097017;28;20130;-71
2021/11/19 10:48:27;;;;;;;38.88;16.83;;;;;;;;;;5097143;28;20096;-71
2021/11/19 10:51:02;;;;;;;48.85;18.65;;;;;;;;;;5097007;28;20034;-71
2021/11/19 10:53:46;;;;;;;31.17;12.98;;;;;;;;;;5097069;28;20044;-71
2021/11/19 10:56:18;;;;;;;33.90;13.85;;;;;;;;;;5078189;28;20032;-70
2021/11/19 10:58:44;;;;;;;31.13;15.65;;;;;;;;;;5096405;28;20019;-71
2021/11/19 11:01:17;;;;;;;36.28;14.50;;;;;;;;;;5096469;28;20102;-71
2021/11/19 11:03:43;;;;;;;38.13;13.98;;;;;;;;;;5061828;28;20345;-71
2021/11/19 11:06:10;;;;;;;31.75;15.20;;;;;;;;;;5097040;28;20070;-71
2021/11/19 11:08:38;;;;;;;31.35;15.50;;;;;;;;;;5096258;28;20046;-71
2021/11/19 11:11:05;;;;;;;46.85;18.77;;;;;;;;;;5096229;28;20070;-71
2021/11/19 11:13:41;;;;;;;28.50;13.93;;;;;;;;;;5061735;28;20111;-71
2021/11/19 11:16:19;;;;;;;21.58;10.93;;;;;;;;;;5096708;28;20043;-71
2021/11/19 11:18:45;;;;;;;22.20;11.70;;;;;;;;;;5078137;28;20016;-71
2021/11/19 11:21:32;;;;;;;36.42;11.73;;;;;;;;;;5096263;28;20024;-71
2021/11/19 11:24:10;;;;;;;21.90;11.85;;;;;;;;;;5096677;28;20052;-71
2021/11/19 11:26:36;;;;;;;21.10;11.77;;;;;;;;;;5096697;28;20409;-71
2021/11/19 11:29:22;;;;;;;35.50;11.07;;;;;;;;;;5096609;28;20069;-71
2021/11/19 11:32:09;;;;;;;21.55;11.00;;;;;;;;;;5096107;28;20032;-71
2021/11/19 11:34:37;;;;;;;27.98;12.13;;;;;;;;;;5077748;28;20034;-71
2021/11/19 11:37:21;;;;;;;24.20;11.38;;;;;;;;;;5078492;28;20387;-71
2021/11/19 11:39:55;;;;;;;25.23;11.15;;;;;;;;;;5096620;28;20119;-71
2021/11/19 11:42:36;;;;;;;27.33;11.98;;;;;;;;;;5096631;28;20039;-71
2021/11/19 11:45:22;;;;;;;28.67;12.77;;;;;;;;;;5096566;28;20034;-71
2021/11/19 11:47:51;;;;;;;29.92;10.27;;;;;;;;;;5095973;28;20368;-71
2021/11/19 11:50:29;;;;;;;30.85;14.38;;;;;;;;;;5096026;28;20426;-71
2021/11/19 11:53:08;;;;;;;43.88;18.83;;;;;;;;;;5096518;28;20048;-71
2021/11/19 11:55:40;;;;;;;51.95;20.88;;;;;;;;;;5099355;28;20329;-71
2021/11/19 11:58:09;;;;;;;48.45;22.13;;;;;;;;;;5082157;28;20016;-71
2021/11/19 12:00:40;;;;;;;53.47;24.15;;;;;;;;;;5081913;28;20062;-71
2021/11/19 12:03:17;;;;;;;61.25;25.33;;;;;;;;;;5100109;28;20020;-71
2021/11/19 12:06:01;;;;;;;65.47;25.30;;;;;;;;;;5100046;28;20031;-71
2021/11/19 12:08:27;;;;;;;80.45;31.10;;;;;;;;;;5100092;28;20024;-71
2021/11/19 12:10:56;;;;;;;55.03;28.63;;;;;;;;;;5100068;28;20019;-71
2021/11/19 12:13:28;;;;;;;54.45;22.38;;;;;;;;;;5082068;28;20427;-71
2021/11/19 12:15:58;;;;;;;56.17;21.63;;;;;;;;;;5099286;28;20020;-71
2021/11/19 12:18:27;;;;;;;55.67;23.40;;;;;;;;;;5100075;28;20024;-71
2021/11/19 12:20:59;;;;;;;52.65;21.08;;;;;;;;;;5099780;28;20039;-71
2021/11/19 12:23:33;;;;;;;52.78;21.40;;;;;;;;;;5099901;28;20337;-71
2021/11/19 12:26:11;;;;;;;45.25;19.17;;;;;;;;;;5099807;28;20032;-72
2021/11/19 12:28:45;;;;;;;51.08;22.25;;;;;;;;;;5099635;28;20020;-71
2021/11/19 12:31:26;;;;;;;44.30;20.85;;;;;;;;;;5099775;28;20065;-72
2021/11/19 12:33:55;;;;;;;28.27;15.38;;;;;;;;;;5099657;28;20107;-72
2021/11/19 12:36:27;;;;;;;39.88;14.45;;;;;;;;;;5095872;28;20061;-71
2021/11/19 12:38:55;;;;;;;27.08;13.55;;;;;;;;;;5099125;28;20490;-71
2021/11/19 12:41:20;;;;;;;27.20;13.55;;;;;;;;;;5099826;28;20039;-71
2021/11/19 12:44:05;;;;;;;27.63;13.52;;;;;;;;;;5081439;28;20429;-71
2021/11/19 12:46:50;;;;;;;34.70;14.82;;;;;;;;;;5099101;28;20093;-71
2021/11/19 12:49:34;;;;;;;45.72;17.58;;;;;;;;;;5098889;28;20463;-71
2021/11/19 12:52:03;;;;;;;44.95;19.90;;;;;;;;;;5081394;28;20333;-71
2021/11/19 12:54:47;;;;;;;52.38;23.27;;;;;;;;;;5099113;28;20043;-71
2021/11/19 12:57:19;;;;;;;57.45;24.20;;;;;;;;;;5081226;28;20031;-71
2021/11/19 13:00:08;;;;;;;56.03;24.92;;;;;;;;;;5098665;28;20089;-71
2021/11/19 13:02:34;;;;;;;50.10;22.48;;;;;;;;;;5073404;28;20066;-72
2021/11/19 13:05:03;;;;;;;53.80;27.58;;;;;;;;;;5080513;28;20059;-71
2021/11/19 13:07:29;;;;;;;55.92;24.80;;;;;;;;;;5080111;28;20051;-71
2021/11/19 13:09:57;;;;;;;49.90;20.38;;;;;;;;;;5098986;28;20422;-71
2021/11/19 13:12:29;;;;;;;60.28;25.95;;;;;;;;;;5080952;28;20024;-71
2021/11/19 13:15:19;;;;;;;54.67;20.30;;;;;;;;;;5098766;28;20026;-71
2021/11/19 13:18:01;;;;;;;41.67;17.73;;;;;;;;;;5080796;28;20024;-71
2021/11/19 13:20:47;;;;;;;36.45;18.10;;;;;;;;;;5098785;28;20339;-72
2021/11/19 13:23:28;;;;;;;39.67;19.23;;;;;;;;;;5098732;28;20372;-72
2021/11/19 13:25:55;;;;;;;40.42;20.00;;;;;;;;;;5098581;28;20097;-72
2021/11/19 13:28:41;;;;;;;36.38;20.17;;;;;;;;;;5098087;28;20016;-72
2021/11/19 13:31:23;;;;;;;46.92;20.50;;;;;;;;;;5084116;28;20479;-72
2021/11/19 13:34:04;;;;;;;54.10;21.75;;;;;;;;;;5063737;28;20047;-72
2021/11/19 13:36:41;;;;;;;41.83;21.90;;;;;;;;;;5097958;28;20375;-72
2021/11/19 13:39:10;;;;;;;50.45;23.60;;;;;;;;;;5080245;28;20025;-72
2021/11/19 13:41:37;;;;;;;39.30;20.95;;;;;;;;;;5080160;28;20023;-72
2021/11/19 13:44:03;;;;;;;49.45;25.17;;;;;;;;;;5097724;28;20333;-72
2021/11/19 13:46:42;;;;;;;47.28;20.38;;;;;;;;;;5098363;28;20062;-72
2021/11/19 13:49:33;;;;;;;47.65;20.92;;;;;;;;;;5080286;28;20020;-72
2021/11/19 13:52:02;;;;;;;39.83;18.08;;;;;;;;;;5097658;28;20433;-72
2021/11/19 13:54:28;;;;;;;42.13;18.40;;;;;;;;;;5098171;28;20069;-72
2021/11/19 13:56:56;;;;;;;42.17;21.13;;;;;;;;;;5079897;28;20375;-72
2021/11/19 13:59:41;;;;;;;38.90;21.80;;;;;;;;;;5097682;28;20016;-72
2021/11/19 14:02:09;;;;;;;54.53;22.17;;;;;;;;;;5098081;28;20027;-73
2021/11/19 14:04:44;;;;;;;67.45;30.65;;;;;;;;;;5097871;28;20074;-72
2021/11/19 14:07:17;;;;;;;64.53;29.05;;;;;;;;;;5097336;28;20082;-72
2021/11/19 14:09:46;;;;;;;62.90;30.13;;;;;;;;;;5097870;28;20020;-72
2021/11/19 14:12:26;;;;;;;70.22;32.42;;;;;;;;;;5079900;28;20020;-72
2021/11/19 14:14:54;;;;;;;77.05;35.67;;;;;;;;;;5097789;28;20016;-72
2021/11/19 14:17:25;;;;;;;80.80;41.40;;;;;;;;;;5097343;28;20029;-70
2021/11/19 14:22:52;;;;;;;;;;;;;;;;;;5090859;28;20093;-70
2021/11/19 14:25:23;;;;;;;100.03;43.25;;;;;;;;;;5097558;28;19912;-72
2021/11/19 14:27:51;;;;;;;100.68;48.00;;;;;;;;;;5096972;28;20016;-72
2021/11/19 14:30:17;;;;;;;93.18;44.03;;;;;;;;;;5097560;28;20023;-71
2021/11/19 14:32:48;;;;;;;97.25;41.65;;;;;;;;;;5079499;28;20024;-71
2021/11/19 14:35:24;;;;;;;82.60;40.40;;;;;;;;;;5096958;28;20023;-71
2021/11/19 14:37:53;;;;;;;81.32;34.63;;;;;;;;;;5097460;28;20058;-72
2021/11/19 14:40:39;;;;;;;70.47;33.92;;;;;;;;;;5079398;28;20367;-72